createdAt,value
2022-12-05T00:01:41.402Z,7.10
2022-12-05T00:04:44.525Z,6.53
2022-12-05T00:07:46.713Z,7.27
2022-12-05T00:10:50.899Z,6.90
2022-12-05T00:13:54.342Z,8.47
2022-12-05T00:16:56.375Z,8.07
2022-12-05T00:19:58.820Z,7.70
2022-12-05T00:23:01.498Z,8.20
2022-12-05T00:26:05.092Z,7.77
2022-12-05T00:29:07.141Z,8.43
2022-12-05T00:32:09.299Z,7.63
2022-12-05T00:35:11.528Z,7.53
2022-12-05T00:38:13.503Z,6.80
2022-12-05T00:41:19.623Z,6.47
2022-12-05T00:44:21.748Z,7.33
2022-12-05T00:47:24.296Z,7.33
2022-12-05T00:50:26.217Z,6.80
2022-12-05T00:53:28.180Z,6.30
2022-12-05T00:56:31.703Z,6.17
2022-12-05T00:59:34.092Z,5.40
2022-12-05T01:02:36.089Z,6.90
2022-12-05T01:05:38.379Z,7.20
2022-12-05T01:08:40.621Z,6.70
2022-12-05T01:11:43.383Z,6.70
2022-12-05T01:14:45.213Z,5.87
2022-12-05T01:17:47.183Z,6.93
2022-12-05T01:20:50.104Z,6.00
2022-12-05T01:23:52.497Z,6.87
2022-12-05T01:26:55.200Z,5.93
2022-12-05T01:29:58.462Z,5.67
2022-12-05T01:33:00.678Z,6.23
2022-12-05T01:36:03.920Z,6.77
2022-12-05T01:39:06.987Z,6.00
2022-12-05T01:42:09.038Z,8.77
2022-12-05T01:45:35.149Z,6.83
2022-12-05T01:48:40.332Z,6.63
2022-12-05T01:51:46.500Z,7.10
2022-12-05T01:54:50.992Z,6.23
2022-12-05T01:57:53.439Z,7.03
2022-12-05T02:00:55.414Z,6.40
2022-12-05T02:03:58.880Z,6.50
2022-12-05T02:07:00.875Z,6.70
2022-12-05T02:10:02.815Z,5.20
2022-12-05T02:13:17.054Z,5.20
2022-12-05T02:16:41.822Z,5.83
2022-12-05T02:20:05.591Z,4.80
2022-12-05T02:23:20.701Z,5.10
2022-12-05T02:26:49.541Z,4.57
2022-12-05T02:30:03.597Z,4.87
2022-12-05T02:33:28.359Z,4.70
2022-12-05T02:36:42.967Z,5.10
2022-12-05T02:39:53.496Z,5.73
2022-12-05T02:43:08.407Z,5.13
2022-12-05T02:46:13.491Z,4.50
2022-12-05T02:49:20.457Z,4.83
2022-12-05T02:52:23.713Z,4.70
2022-12-05T02:55:27.446Z,4.77
2022-12-05T02:58:36.392Z,5.10
2022-12-05T03:01:38.308Z,5.30
2022-12-05T03:04:40.294Z,5.37
2022-12-05T03:07:46.153Z,4.90
2022-12-05T03:10:49.333Z,5.23
2022-12-05T03:14:00.794Z,5.27
2022-12-05T03:17:06.580Z,5.27
2022-12-05T03:20:35.367Z,5.10
2022-12-05T03:23:51.842Z,5.23
2022-12-05T03:26:56.360Z,6.13
2022-12-05T03:30:09.803Z,6.00
2022-12-05T03:33:20.797Z,5.73
2022-12-05T03:36:28.608Z,6.17
2022-12-05T03:39:33.819Z,6.03
2022-12-05T03:42:37.670Z,6.30
2022-12-05T03:46:16.092Z,6.33
2022-12-05T03:49:45.387Z,8.77
2022-12-05T03:53:18.578Z,7.90
2022-12-05T03:56:24.600Z,7.30
2022-12-05T03:59:36.372Z,7.37
2022-12-05T04:03:04.813Z,7.40
2022-12-05T04:06:13.398Z,17.30
2022-12-05T04:09:20.358Z,9.07
2022-12-05T04:12:25.518Z,9.77
2022-12-05T04:15:50.767Z,12.07
2022-12-05T04:19:57.710Z,9.70
2022-12-05T04:23:00.015Z,9.03
2022-12-05T04:26:06.257Z,10.17
2022-12-05T04:29:15.190Z,11.57
2022-12-05T04:32:17.933Z,10.20
2022-12-05T04:35:30.266Z,11.13
2022-12-05T04:38:53.774Z,9.63
2022-12-05T04:41:59.623Z,9.83
2022-12-05T04:45:08.263Z,8.83
2022-12-05T04:48:15.961Z,8.17
2022-12-05T04:51:23.427Z,9.33
2022-12-05T04:54:33.540Z,8.80
2022-12-05T04:57:56.438Z,8.23
2022-12-05T05:01:23.839Z,8.63
2022-12-05T05:04:35.997Z,9.20
2022-12-05T05:07:55.343Z,8.00
2022-12-05T05:11:19.325Z,7.73
2022-12-05T05:14:21.379Z,7.93
2022-12-05T05:17:23.240Z,8.10
2022-12-05T05:20:25.381Z,7.63
2022-12-05T05:23:27.213Z,7.13
2022-12-05T05:26:30.322Z,9.33
2022-12-05T05:29:32.118Z,8.10
2022-12-05T05:32:34.019Z,8.00
2022-12-05T05:35:39.220Z,8.23
2022-12-05T05:38:44.337Z,8.53
2022-12-05T05:41:46.186Z,7.57
2022-12-05T05:44:48.284Z,8.07
2022-12-05T05:47:50.229Z,7.90
2022-12-05T05:50:52.496Z,7.40
2022-12-05T05:53:54.349Z,7.57
2022-12-05T05:56:56.333Z,7.00
2022-12-05T05:59:58.536Z,7.27
2022-12-05T06:03:01.514Z,6.57
2022-12-05T06:06:06.364Z,7.33
2022-12-05T06:09:08.389Z,7.90
2022-12-05T06:12:10.208Z,7.00
2022-12-05T06:15:12.544Z,6.47
2022-12-05T06:18:14.838Z,6.23
2022-12-05T06:21:17.342Z,6.43
2022-12-05T06:24:19.159Z,6.37
2022-12-05T06:27:21.339Z,6.63
2022-12-05T06:30:23.226Z,6.70
2022-12-05T06:33:29.354Z,6.60
2022-12-05T06:36:31.608Z,7.30
2022-12-05T06:39:33.509Z,7.13
2022-12-05T06:42:35.455Z,6.33
2022-12-05T06:45:40.420Z,6.67
2022-12-05T06:48:42.430Z,5.90
2022-12-05T06:51:44.766Z,6.37
2022-12-05T06:54:47.056Z,5.87
2022-12-05T06:57:49.348Z,6.47
2022-12-05T07:01:09.731Z,5.17
2022-12-05T07:04:16.073Z,5.93
2022-12-05T07:07:17.899Z,7.70
2022-12-05T07:10:20.096Z,6.67
2022-12-05T07:13:22.605Z,7.03
2022-12-05T07:16:25.395Z,6.47
2022-12-05T07:19:27.263Z,6.30
2022-12-05T07:22:29.233Z,6.70
2022-12-05T07:25:31.084Z,6.37
2022-12-05T07:28:33.069Z,6.57
2022-12-05T07:31:36.736Z,6.10
2022-12-05T07:34:39.132Z,6.77
2022-12-05T07:37:40.936Z,6.87
2022-12-05T07:40:42.814Z,6.87
2022-12-05T07:43:44.694Z,6.33
2022-12-05T07:46:46.588Z,6.43
2022-12-05T07:49:48.471Z,7.50
2022-12-05T07:52:51.276Z,6.40
2022-12-05T07:55:53.089Z,6.53
2022-12-05T07:58:55.159Z,6.17
2022-12-05T08:01:57.162Z,6.47
2022-12-05T08:04:59.135Z,6.93
2022-12-05T08:08:01.003Z,5.90
2022-12-05T08:11:07.503Z,6.13
2022-12-05T08:14:09.412Z,6.73
2022-12-05T08:17:11.713Z,6.63
2022-12-05T08:20:14.060Z,6.33
2022-12-05T08:23:15.924Z,6.00
2022-12-05T08:26:21.188Z,5.83
2022-12-05T08:29:23.273Z,5.77
2022-12-05T08:32:25.125Z,6.13
2022-12-05T08:35:27.017Z,6.50
2022-12-05T08:38:29.141Z,5.70
2022-12-05T08:41:35.208Z,5.13
2022-12-05T08:44:36.990Z,5.67
2022-12-05T08:47:38.933Z,5.60
2022-12-05T08:50:40.760Z,6.80
2022-12-05T08:53:44.593Z,6.00
2022-12-05T08:56:51.147Z,5.63
2022-12-05T08:59:53.072Z,5.97
2022-12-05T09:02:55.041Z,4.73
2022-12-05T09:06:07.487Z,4.73
2022-12-05T09:09:12.074Z,5.13
2022-12-05T09:12:15.169Z,5.50
2022-12-05T09:15:17.675Z,6.60
2022-12-05T09:18:20.126Z,5.53
2022-12-05T09:21:24.797Z,6.27
2022-12-05T09:24:26.643Z,6.07
2022-12-05T09:27:28.593Z,5.40
2022-12-05T09:30:30.453Z,5.50
2022-12-05T09:33:35.640Z,5.43
2022-12-05T09:36:37.563Z,5.93
2022-12-05T09:39:39.488Z,5.70
2022-12-05T09:43:03.294Z,5.57
2022-12-05T09:46:41.757Z,5.90
2022-12-05T09:49:56.187Z,6.67
2022-12-05T09:53:09.972Z,5.43
2022-12-05T09:56:26.373Z,5.17
2022-12-05T09:59:28.228Z,5.30
2022-12-05T10:02:35.871Z,5.10
2022-12-05T10:05:55.214Z,5.13
2022-12-05T10:08:57.033Z,5.23
2022-12-05T10:12:14.004Z,5.53
2022-12-05T10:15:34.368Z,4.73
2022-12-05T10:18:46.723Z,5.30
2022-12-05T10:21:52.531Z,5.00
2022-12-05T10:25:02.076Z,4.90
2022-12-05T10:28:12.306Z,4.67
2022-12-05T10:31:19.456Z,5.03
2022-12-05T10:34:35.808Z,4.73
2022-12-05T10:37:38.142Z,4.63
2022-12-05T10:40:42.458Z,5.10
2022-12-05T10:43:45.461Z,4.77
2022-12-05T10:46:48.512Z,4.67
2022-12-05T10:49:50.744Z,5.13
2022-12-05T10:52:54.692Z,4.50
2022-12-05T10:56:28.890Z,5.40
2022-12-05T10:59:21.220Z,4.93
2022-12-05T11:02:31.556Z,5.50
2022-12-05T11:05:39.802Z,5.40
2022-12-05T11:09:03.832Z,5.33
2022-12-05T11:12:15.027Z,5.63
2022-12-05T11:15:17.171Z,5.20
2022-12-05T11:18:29.252Z,5.80
2022-12-05T11:21:42.633Z,5.60
2022-12-05T11:24:45.000Z,5.70
2022-12-05T11:27:46.943Z,6.00
2022-12-05T11:31:06.894Z,5.00
2022-12-05T11:34:19.363Z,5.43
2022-12-05T11:37:33.354Z,6.03
2022-12-05T11:40:40.899Z,5.60
2022-12-05T11:44:02.227Z,5.67
2022-12-05T11:47:22.822Z,5.70
2022-12-05T11:50:46.740Z,6.00
2022-12-05T11:54:10.978Z,5.80
2022-12-05T11:57:17.198Z,6.10
2022-12-05T12:00:48.471Z,5.67
2022-12-05T12:04:00.312Z,5.20
2022-12-05T12:07:26.360Z,5.50
2022-12-05T12:10:44.100Z,5.43
2022-12-05T12:13:58.237Z,5.77
2022-12-05T12:17:10.284Z,5.93
2022-12-05T12:20:57.726Z,5.27
2022-12-05T12:24:16.880Z,5.37
2022-12-05T12:27:21.718Z,6.27
2022-12-05T12:30:57.937Z,6.23
2022-12-05T12:34:23.523Z,5.37
2022-12-05T12:37:48.414Z,5.83
2022-12-05T12:41:34.828Z,6.87
2022-12-05T12:45:12.678Z,5.33
2022-12-05T12:48:36.417Z,6.03
2022-12-05T12:51:45.218Z,5.50
2022-12-05T12:55:12.208Z,5.97
2022-12-05T12:58:23.183Z,6.30
2022-12-05T13:01:53.772Z,5.47
2022-12-05T13:05:08.117Z,5.77
2022-12-05T13:08:21.319Z,6.10
2022-12-05T13:11:24.251Z,6.10
2022-12-05T13:14:27.922Z,6.43
2022-12-05T13:17:30.913Z,6.70
2022-12-05T13:20:34.852Z,5.97
2022-12-05T13:23:49.241Z,7.83
2022-12-05T13:26:51.219Z,7.37
2022-12-05T13:29:59.359Z,7.87
2022-12-05T13:33:10.112Z,8.77
2022-12-05T13:36:41.584Z,10.00
2022-12-05T13:40:09.825Z,11.57
2022-12-05T13:43:13.835Z,10.10
2022-12-05T13:46:35.409Z,9.67
2022-12-05T13:49:52.899Z,9.10
2022-12-05T13:52:57.819Z,7.93
2022-12-05T13:56:04.622Z,6.70
2022-12-05T13:59:08.969Z,5.97
2022-12-05T14:02:41.943Z,7.13
2022-12-05T14:05:53.405Z,4.90
2022-12-05T14:08:55.351Z,5.10
2022-12-05T14:12:15.060Z,5.07
2022-12-05T14:15:38.063Z,5.77
2022-12-05T14:18:46.393Z,5.30
2022-12-05T14:21:57.155Z,8.43
2022-12-05T14:25:12.510Z,9.43
2022-12-05T14:28:35.172Z,8.63
2022-12-05T14:31:58.449Z,7.70
2022-12-05T14:35:12.241Z,8.33
2022-12-05T14:38:31.536Z,7.93
2022-12-05T14:41:36.391Z,7.80
2022-12-05T14:44:46.965Z,7.17
2022-12-05T14:47:58.024Z,7.93
2022-12-05T14:51:00.771Z,7.33
2022-12-05T14:54:14.712Z,8.53
2022-12-05T14:57:17.117Z,8.03
2022-12-05T15:00:23.182Z,7.80
2022-12-05T15:03:36.773Z,6.83
2022-12-05T15:06:47.754Z,8.40
2022-12-05T15:09:56.946Z,8.67
2022-12-05T15:13:14.229Z,7.57
2022-12-05T15:16:19.544Z,8.27
2022-12-05T15:19:50.228Z,9.50
2022-12-05T15:22:52.094Z,7.47
2022-12-05T15:25:57.415Z,7.90
2022-12-05T15:29:08.788Z,10.40
2022-12-05T15:32:10.630Z,11.90
2022-12-05T15:35:15.264Z,10.90
2022-12-05T15:38:27.522Z,9.23
2022-12-05T15:41:29.896Z,11.00
2022-12-05T15:44:37.602Z,11.07
2022-12-05T15:47:45.103Z,10.13
2022-12-05T15:50:49.844Z,11.27
2022-12-05T15:53:58.739Z,9.73
2022-12-05T15:57:39.176Z,10.30
2022-12-05T16:00:44.488Z,11.88
2022-12-05T16:03:50.089Z,13.77
2022-12-05T16:06:55.848Z,13.63
2022-12-05T16:10:00.079Z,13.63
2022-12-05T16:13:07.418Z,12.93
2022-12-05T16:16:18.287Z,11.00
2022-12-05T16:19:23.403Z,10.40
2022-12-05T16:22:26.704Z,10.33
2022-12-05T16:25:36.842Z,9.23
2022-12-05T16:28:40.236Z,9.13
2022-12-05T16:31:43.573Z,8.90
2022-12-05T16:34:48.412Z,9.13
2022-12-05T16:37:50.233Z,9.27
2022-12-05T16:41:01.166Z,8.70
2022-12-05T16:44:09.406Z,8.07
2022-12-05T16:47:26.768Z,9.23
2022-12-05T16:50:44.904Z,7.93
2022-12-05T16:54:19.166Z,9.37
2022-12-05T16:57:20.996Z,9.03
2022-12-05T17:00:22.950Z,9.23
2022-12-05T17:03:34.368Z,9.20
2022-12-05T17:06:37.277Z,9.67
2022-12-05T17:09:39.226Z,9.47
2022-12-05T17:12:43.460Z,10.03
2022-12-05T17:15:50.366Z,10.00
2022-12-05T17:18:52.484Z,8.73
2022-12-05T17:22:53.025Z,9.83
2022-12-05T17:25:57.122Z,8.20
2022-12-05T17:28:58.940Z,11.23
2022-12-05T17:36:34.994Z,11.03
2022-12-05T17:39:36.869Z,10.53
2022-12-05T17:43:01.232Z,10.17
2022-12-05T17:46:29.208Z,9.80
2022-12-05T17:49:32.210Z,8.37
2022-12-05T17:52:34.260Z,10.50
2022-12-05T17:56:05.738Z,9.37
2022-12-05T17:59:07.674Z,7.77
2022-12-05T18:02:20.850Z,9.37
2022-12-05T18:05:23.928Z,10.70
2022-12-05T18:08:26.100Z,9.83
2022-12-05T18:11:27.904Z,7.93
2022-12-05T18:14:30.350Z,8.23
2022-12-05T18:17:32.306Z,9.00
2022-12-05T18:20:35.865Z,9.07
2022-12-05T18:23:38.697Z,9.10
2022-12-05T18:26:41.309Z,9.80
2022-12-05T18:29:43.437Z,9.80
2022-12-05T18:32:45.842Z,10.93
2022-12-05T18:35:47.699Z,10.63
2022-12-05T18:38:52.565Z,9.33
2022-12-05T18:41:54.893Z,9.93
2022-12-05T18:44:58.653Z,11.53
2022-12-05T18:48:22.949Z,16.30
2022-12-05T18:51:25.540Z,13.87
2022-12-05T18:54:27.447Z,13.13
2022-12-05T18:57:29.843Z,10.40
2022-12-05T19:00:31.859Z,9.80
2022-12-05T19:03:34.942Z,10.47
2022-12-05T19:06:37.049Z,11.40
2022-12-05T19:09:39.189Z,12.13
2022-12-05T19:12:41.342Z,9.97
2022-12-05T19:15:43.758Z,10.03
2022-12-05T19:18:47.147Z,6.10
2022-12-05T19:21:49.126Z,5.87
2022-12-05T19:24:51.026Z,5.67
2022-12-05T19:27:53.020Z,6.30
2022-12-05T19:31:11.991Z,6.43
2022-12-05T19:34:14.317Z,5.83
2022-12-05T19:37:16.145Z,6.83
2022-12-05T19:40:18.115Z,8.87
2022-12-05T19:43:19.922Z,7.83
2022-12-05T19:46:28.069Z,7.37
2022-12-05T19:49:30.079Z,7.00
2022-12-05T19:52:32.061Z,7.50
2022-12-05T19:55:33.903Z,7.37
2022-12-05T19:58:37.021Z,8.20
2022-12-05T20:01:39.975Z,7.10
2022-12-05T20:04:43.364Z,6.57
2022-12-05T20:07:46.222Z,5.93
2022-12-05T20:10:50.232Z,3.80
2022-12-05T20:13:53.991Z,3.30
2022-12-05T20:16:56.564Z,2.60
2022-12-05T20:19:59.142Z,2.30
2022-12-05T20:23:01.898Z,2.23
2022-12-05T20:26:07.028Z,2.07
2022-12-05T20:29:09.666Z,1.60
2022-12-05T20:32:11.631Z,2.43
2022-12-05T20:35:13.552Z,1.77
2022-12-05T20:38:15.414Z,1.90
2022-12-05T20:41:18.819Z,1.63
2022-12-05T20:44:20.779Z,2.30
2022-12-05T20:47:22.735Z,1.93
2022-12-05T20:50:24.782Z,3.07
2022-12-05T20:53:26.716Z,3.43
2022-12-05T20:56:32.063Z,2.23
2022-12-05T20:59:34.482Z,1.67
2022-12-05T21:02:36.328Z,1.70
2022-12-05T21:05:39.268Z,1.77
2022-12-05T21:08:41.733Z,3.00
2022-12-05T21:11:44.591Z,2.43
2022-12-05T21:14:46.562Z,1.80
2022-12-05T21:21:11.635Z,3.17
2022-12-05T21:24:13.854Z,2.77
2022-12-05T21:27:16.228Z,2.27
2022-12-05T21:30:18.267Z,1.93
2022-12-05T21:33:25.808Z,2.37
2022-12-05T21:36:32.519Z,1.80
2022-12-05T21:39:34.875Z,2.10
2022-12-05T21:42:36.774Z,1.60
2022-12-05T21:45:43.313Z,1.60
2022-12-05T21:48:46.939Z,1.70
2022-12-05T21:51:49.119Z,1.50
2022-12-05T21:54:50.919Z,1.73
2022-12-05T21:57:52.946Z,2.10
2022-12-05T22:00:55.871Z,1.30
2022-12-05T22:04:01.771Z,1.60
2022-12-05T22:07:03.698Z,2.10
2022-12-05T22:10:06.436Z,2.13
2022-12-05T22:13:08.427Z,1.80
2022-12-05T22:16:10.987Z,1.63
2022-12-05T22:19:12.980Z,1.60
2022-12-05T22:22:14.955Z,1.40
2022-12-05T22:25:19.568Z,1.40
2022-12-05T22:28:21.755Z,1.10
2022-12-05T22:31:24.732Z,1.10
2022-12-05T22:34:26.694Z,1.00
2022-12-05T22:37:28.594Z,0.90
2022-12-05T22:40:30.748Z,0.80
2022-12-05T22:43:33.559Z,1.17
2022-12-05T22:46:35.530Z,1.07
2022-12-05T22:49:37.435Z,1.30
2022-12-05T22:52:39.434Z,1.03
2022-12-05T22:55:41.369Z,0.80
2022-12-05T22:58:43.760Z,0.77
2022-12-05T23:01:45.721Z,1.03
2022-12-05T23:04:47.618Z,0.70
2022-12-05T23:07:49.515Z,0.80
2022-12-05T23:10:52.206Z,0.70
2022-12-05T23:14:01.425Z,0.90
2022-12-05T23:17:03.863Z,0.80
2022-12-05T23:20:06.707Z,0.53
2022-12-05T23:23:08.673Z,0.50
2022-12-05T23:26:11.264Z,0.60
2022-12-05T23:29:14.437Z,0.60
2022-12-05T23:32:16.304Z,0.50
2022-12-05T23:35:18.381Z,0.40
2022-12-05T23:38:20.537Z,0.33
2022-12-05T23:41:24.509Z,0.50
2022-12-05T23:44:26.409Z,0.40
2022-12-05T23:47:28.363Z,0.60
2022-12-05T23:50:30.258Z,0.50
2022-12-05T23:53:34.163Z,0.57
2022-12-05T23:56:36.729Z,0.50
2022-12-05T23:59:38.709Z,0.60
